Time;durP1;ratioP1;P1;durP2;ratioP2;P2;SDS_P1;SDS_P2;PMS_P1;PMS_P2;Temp;Humidity;BMP_temperature;BMP_pressure;BME280_temperature;BME280_humidity;BME280_pressure;Samples;Min_cycle;Max_cycle;Signal;HPM_P1;HPM_P2
2023/12/11 00:00:30;;;;;;;26.73;3.40;;;9.20;99.90;;;;;;5014303;28;20051;-75
2023/12/11 00:02:55;;;;;;;39.33;4.00;;;9.20;99.90;;;;;;5015738;28;20025;-75
2023/12/11 00:05:21;;;;;;;28.92;3.45;;;9.20;99.90;;;;;;5016280;28;20076;-75
2023/12/11 00:07:47;;;;;;;34.53;2.50;;;9.20;99.90;;;;;;5014313;28;20025;-75
2023/12/11 00:10:13;;;;;;;37.00;3.53;;;9.20;99.90;;;;;;5015336;28;20029;-75
2023/12/11 00:12:39;;;;;;;31.98;3.55;;;9.20;99.90;;;;;;5015489;28;20151;-75
2023/12/11 00:15:05;;;;;;;31.20;2.70;;;9.20;99.90;;;;;;5015683;28;20018;-75
2023/12/11 00:17:30;;;;;;;24.35;2.10;;;9.20;99.90;;;;;;5015433;28;20030;-75
2023/12/11 00:19:56;;;;;;;22.05;1.95;;;9.20;99.90;;;;;;5015359;28;20137;-75
2023/12/11 00:22:22;;;;;;;28.08;3.95;;;9.30;99.90;;;;;;5014794;28;20025;-75
2023/12/11 00:24:47;;;;;;;34.70;4.90;;;10.40;99.90;;;;;;5015153;28;20061;-75
2023/12/11 00:27:16;;;;;;;29.75;2.38;;;9.30;99.90;;;;;;5015142;28;20025;-75
2023/12/11 00:29:41;;;;;;;30.80;3.10;;;9.30;99.90;;;;;;5014899;28;20473;-75
2023/12/11 00:32:07;;;;;;;33.72;4.03;;;9.30;99.90;;;;;;5015029;28;20043;-75
2023/12/11 00:34:33;;;;;;;36.22;3.47;;;9.40;99.90;;;;;;5014958;28;20371;-75
2023/12/11 00:36:58;;;;;;;28.05;3.47;;;9.40;99.90;;;;;;5015009;28;20049;-75
2023/12/11 00:39:24;;;;;;;32.85;4.95;;;9.40;99.90;;;;;;5015105;28;20086;-75
2023/12/11 00:41:50;;;;;;;46.88;4.85;;;9.40;99.90;;;;;;5015103;28;20057;-75
2023/12/11 00:44:16;;;;;;;28.40;2.85;;;9.50;99.90;;;;;;5013433;28;20105;-75
2023/12/11 00:46:41;;;;;;;28.05;3.10;;;9.40;99.90;;;;;;5014925;28;20478;-75
2023/12/11 00:49:07;;;;;;;39.42;4.30;;;9.60;99.90;;;;;;5014605;28;20046;-75
2023/12/11 00:51:33;;;;;;;36.50;2.42;;;9.50;99.90;;;;;;5014488;28;20022;-75
2023/12/11 00:53:58;;;;;;;38.28;3.95;;;9.50;99.90;;;;;;5015181;28;20426;-75
2023/12/11 00:56:24;;;;;;;36.50;2.92;;;9.60;99.90;;;;;;5014681;28;20481;-75
2023/12/11 00:58:50;;;;;;;35.97;3.78;;;9.70;99.90;;;;;;5014729;28;20032;-75
2023/12/11 01:01:15;;;;;;;39.35;4.75;;;9.60;99.90;;;;;;5014725;28;20022;-75
2023/12/11 01:03:41;;;;;;;28.42;3.20;;;9.80;99.90;;;;;;5013062;28;20018;-75
2023/12/11 01:06:06;;;;;;;29.30;3.45;;;9.70;99.90;;;;;;5014647;28;20032;-75
2023/12/11 01:08:38;;;;;;;31.50;3.47;;;9.70;99.90;;;;;;5014992;28;20109;-75
2023/12/11 01:11:03;;;;;;;28.42;3.30;;;9.80;99.90;;;;;;5013999;28;20033;-75
2023/12/11 01:13:29;;;;;;;29.75;3.40;;;9.80;99.90;;;;;;5014364;28;20029;-75
2023/12/11 01:15:54;;;;;;;27.55;2.15;;;9.80;99.90;;;;;;5013380;28;20099;-75
2023/12/11 01:18:20;;;;;;;28.73;4.65;;;9.80;99.90;;;;;;5014487;28;20054;-75
2023/12/11 01:20:46;;;;;;;31.40;3.33;;;9.80;99.90;;;;;;5014259;28;20053;-75
2023/12/11 01:23:11;;;;;;;33.38;3.58;;;9.80;99.90;;;;;;5014555;28;20029;-75
2023/12/11 01:25:37;;;;;;;35.38;2.35;;;9.80;99.90;;;;;;5014227;28;20026;-75
2023/12/11 01:28:02;;;;;;;40.10;3.63;;;9.90;99.90;;;;;;5012720;28;20076;-75
2023/12/11 01:30:28;;;;;;;22.00;2.83;;;9.90;99.90;;;;;;5014003;28;20493;-75
2023/12/11 01:32:53;;;;;;;32.10;3.47;;;9.90;99.90;;;;;;5014567;28;20386;-75
2023/12/11 01:35:19;;;;;;;41.83;4.25;;;9.90;99.90;;;;;;5012189;28;20507;-75
2023/12/11 01:37:44;;;;;;;40.80;3.75;;;9.80;99.90;;;;;;5012835;28;20021;-75
2023/12/11 01:40:11;;;;;;;33.20;3.47;;;9.90;99.90;;;;;;5013537;28;20105;-75
2023/12/11 01:42:36;;;;;;;40.08;2.90;;;9.90;99.90;;;;;;5014058;28;20117;-75
2023/12/11 01:45:02;;;;;;;28.73;2.90;;;9.90;99.90;;;;;;5012574;28;20080;-75
2023/12/11 01:47:28;;;;;;;39.03;2.60;;;9.90;99.90;;;;;;5013130;28;20037;-75
2023/12/11 01:49:53;;;;;;;41.55;3.88;;;9.80;99.90;;;;;;5012602;28;20113;-75
2023/12/11 01:52:19;;;;;;;32.55;3.97;;;9.80;99.90;;;;;;5014036;28;20038;-75
2023/12/11 01:54:45;;;;;;;28.25;3.10;;;9.80;99.90;;;;;;5012714;28;20057;-75
2023/12/11 01:57:11;;;;;;;33.30;3.53;;;9.70;99.90;;;;;;5014028;28;20412;-75
2023/12/11 01:59:38;;;;;;;27.75;2.08;;;9.70;99.90;;;;;;5014571;28;20026;-75
2023/12/11 02:02:04;;;;;;;28.73;3.22;;;9.70;99.90;;;;;;5012876;28;20088;-75
2023/12/11 02:04:30;;;;;;;28.00;2.05;;;9.70;99.90;;;;;;5014121;28;20025;-73
2023/12/11 02:06:56;;;;;;;28.98;2.75;;;9.60;99.90;;;;;;5013802;28;20088;-75
2023/12/11 02:09:22;;;;;;;31.27;2.08;;;9.60;99.90;;;;;;5013574;28;20062;-75
2023/12/11 02:11:48;;;;;;;28.85;2.25;;;9.60;99.90;;;;;;5013771;28;20053;-75
2023/12/11 02:14:14;;;;;;;36.33;3.25;;;9.60;99.90;;;;;;5013721;28;20030;-75
2023/12/11 02:16:39;;;;;;;27.75;2.83;;;9.60;99.90;;;;;;5012456;28;20022;-75
2023/12/11 02:19:06;;;;;;;32.45;3.20;;;9.60;99.90;;;;;;5013700;28;20026;-75
2023/12/11 02:21:32;;;;;;;21.92;1.42;;;9.60;99.90;;;;;;5012221;28;20048;-75
2023/12/11 02:24:01;;;;;;;31.98;3.03;;;9.60;99.90;;;;;;5014301;28;20022;-75
2023/12/11 02:26:26;;;;;;;32.70;2.92;;;9.50;99.90;;;;;;5013840;28;20022;-75
2023/12/11 02:28:52;;;;;;;15.38;1.95;;;9.50;99.90;;;;;;5013561;28;20053;-75
2023/12/11 02:31:17;;;;;;;26.15;2.83;;;9.50;99.90;;;;;;5013901;28;20041;-75
2023/12/11 02:33:43;;;;;;;22.92;2.35;;;9.50;99.90;;;;;;5013604;28;20518;-74
2023/12/11 02:36:08;;;;;;;34.38;2.88;;;9.50;99.90;;;;;;5013849;28;20018;-75
2023/12/11 02:38:34;;;;;;;25.10;2.13;;;9.40;99.90;;;;;;5012248;28;20053;-75
2023/12/11 02:41:00;;;;;;;39.25;3.45;;;9.40;99.90;;;;;;5013596;28;20026;-75
2023/12/11 02:43:25;;;;;;;30.63;4.00;;;9.50;99.90;;;;;;5012400;28;20030;-75
2023/12/11 02:45:51;;;;;;;28.48;1.88;;;9.40;99.90;;;;;;5015306;28;20038;-75
2023/12/11 02:48:18;;;;;;;21.25;1.98;;;9.40;99.90;;;;;;5017226;28;20029;-75
2023/12/11 02:50:43;;;;;;;20.75;1.88;;;10.50;99.90;;;;;;5017167;28;20501;-75
2023/12/11 02:53:09;;;;;;;25.90;2.55;;;9.40;99.90;;;;;;5017017;28;20061;-75
2023/12/11 02:55:34;;;;;;;35.63;1.55;;;9.40;99.90;;;;;;5016882;28;20014;-75
2023/12/11 02:58:01;;;;;;;21.95;1.30;;;9.40;99.90;;;;;;5017476;28;20370;-75
2023/12/11 03:00:29;;;;;;;16.73;1.00;;;9.40;99.90;;;;;;5017010;28;20474;-74
2023/12/11 03:02:55;;;;;;;24.90;1.65;;;9.50;99.90;;;;;;5015981;28;20497;-75
2023/12/11 03:05:21;;;;;;;26.00;1.73;;;9.50;99.90;;;;;;5017429;28;20030;-75
2023/12/11 03:07:46;;;;;;;22.95;2.03;;;9.40;99.90;;;;;;5016730;28;20033;-75
2023/12/11 03:10:12;;;;;;;21.00;1.45;;;9.40;99.90;;;;;;5016588;28;20032;-75
2023/12/11 03:12:38;;;;;;;31.05;2.15;;;9.50;99.90;;;;;;5016682;28;20022;-75
2023/12/11 03:15:05;;;;;;;21.70;1.80;;;9.50;99.90;;;;;;5016557;28;20028;-75
2023/12/11 03:17:31;;;;;;;23.17;1.65;;;9.50;99.90;;;;;;5016750;28;20026;-75
2023/12/11 03:19:56;;;;;;;36.00;5.00;;;9.50;99.90;;;;;;5016554;28;20034;-75
2023/12/11 03:22:24;;;;;;;21.65;1.20;;;9.50;99.90;;;;;;5017195;28;20022;-75
2023/12/11 03:24:50;;;;;;;21.80;2.67;;;9.50;99.90;;;;;;5015404;28;20029;-75
2023/12/11 03:27:16;;;;;;;24.67;2.78;;;9.50;99.90;;;;;;5016595;28;20053;-75
2023/12/11 03:29:42;;;;;;;30.67;2.38;;;9.50;99.90;;;;;;5016586;28;20058;-75
2023/12/11 03:32:08;;;;;;;26.10;1.65;;;9.50;99.90;;;;;;5014756;28;20113;-75
2023/12/11 03:34:33;;;;;;;24.98;3.17;;;9.50;99.90;;;;;;5015132;28;20117;-75
2023/12/11 03:36:59;;;;;;;29.77;1.88;;;9.60;99.90;;;;;;5016726;28;20040;-75
2023/12/11 03:39:25;;;;;;;22.30;3.00;;;9.60;99.90;;;;;;5014802;28;20026;-75
2023/12/11 03:41:51;;;;;;;25.67;2.45;;;9.60;99.90;;;;;;5016359;28;20386;-75
2023/12/11 03:44:17;;;;;;;21.55;1.67;;;9.60;99.90;;;;;;5015130;28;20022;-75
2023/12/11 03:46:42;;;;;;;29.45;3.78;;;9.70;99.90;;;;;;5016357;28;20022;-75
2023/12/11 03:49:08;;;;;;;23.85;1.48;;;9.80;99.90;;;;;;5016649;28;20511;-75
2023/12/11 03:51:33;;;;;;;24.15;2.85;;;9.80;99.90;;;;;;5014783;28;20469;-75
2023/12/11 03:54:00;;;;;;;28.42;2.88;;;9.80;99.90;;;;;;5015862;28;20066;-75
2023/12/11 03:56:26;;;;;;;29.60;2.13;;;10.00;99.90;;;;;;5016318;28;20025;-75
2023/12/11 03:58:52;;;;;;;41.13;3.97;;;10.00;99.90;;;;;;5015699;28;20038;-75
2023/12/11 04:01:17;;;;;;;39.47;1.95;;;10.00;99.90;;;;;;5015941;28;20072;-75
2023/12/11 04:03:43;;;;;;;19.73;1.73;;;9.90;99.90;;;;;;5014708;28;20025;-75
2023/12/11 04:06:09;;;;;;;27.73;3.40;;;9.90;99.90;;;;;;5015352;28;20142;-75
2023/12/11 04:08:42;;;;;;;28.65;2.90;;;9.90;99.90;;;;;;5016092;28;20030;-75
2023/12/11 04:11:08;;;;;;;25.33;3.03;;;9.80;99.90;;;;;;5015605;28;20029;-75
2023/12/11 04:13:34;;;;;;;23.23;2.60;;;9.80;99.90;;;;;;5016248;28;20022;-75
2023/12/11 04:15:59;;;;;;;23.05;2.00;;;9.90;99.90;;;;;;5014516;28;20026;-75
2023/12/11 04:18:25;;;;;;;27.42;1.40;;;9.80;99.90;;;;;;5014514;28;20022;-75
2023/12/11 04:20:50;;;;;;;22.92;1.80;;;9.80;99.90;;;;;;5015721;28;20100;-75
2023/12/11 04:23:16;;;;;;;25.17;2.15;;;9.80;99.90;;;;;;5015658;28;20456;-75
2023/12/11 04:25:41;;;;;;;23.55;1.73;;;9.70;99.90;;;;;;5015334;28;20026;-75
2023/12/11 04:28:07;;;;;;;36.60;2.75;;;9.80;99.90;;;;;;5015265;28;20056;-75
2023/12/11 04:30:36;;;;;;;22.20;1.73;;;9.90;99.90;;;;;;5015064;28;20018;-75
2023/12/11 04:33:01;;;;;;;29.13;2.70;;;9.80;99.90;;;;;;5013947;28;20025;-75
2023/12/11 04:35:27;;;;;;;34.00;2.05;;;9.80;99.90;;;;;;5014155;28;20026;-74
2023/12/11 04:37:52;;;;;;;22.90;3.10;;;9.80;99.90;;;;;;5015757;28;20080;-75
2023/12/11 04:40:18;;;;;;;19.08;2.13;;;9.80;99.90;;;;;;5015805;28;20421;-75
2023/12/11 04:42:43;;;;;;;31.08;2.28;;;9.80;99.90;;;;;;5014771;28;20021;-75
2023/12/11 04:45:09;;;;;;;23.88;3.38;;;9.80;99.90;;;;;;5015486;28;20022;-75
2023/12/11 04:47:34;;;;;;;31.00;2.55;;;9.80;99.90;;;;;;5015087;28;20488;-75
2023/12/11 04:50:00;;;;;;;37.00;2.67;;;9.80;99.90;;;;;;5013825;28;20480;-75
2023/12/11 04:52:25;;;;;;;28.45;2.80;;;9.80;99.90;;;;;;5015063;28;20029;-75
2023/12/11 04:54:51;;;;;;;20.05;2.80;;;9.80;99.90;;;;;;5015453;28;20446;-74
2023/12/11 04:57:17;;;;;;;26.92;3.00;;;9.80;99.90;;;;;;5013657;28;20018;-75
2023/12/11 04:59:43;;;;;;;33.20;3.42;;;9.80;99.90;;;;;;5014738;28;20022;-75
2023/12/11 05:02:08;;;;;;;24.52;3.00;;;9.80;99.90;;;;;;5014913;28;20018;-75
2023/12/11 05:04:34;;;;;;;28.55;4.15;;;;;;;;;;5014633;28;20026;-75
2023/12/11 05:07:00;;;;;;;22.08;2.75;;;9.80;99.90;;;;;;5014921;28;20053;-75
2023/12/11 05:09:25;;;;;;;22.40;2.17;;;9.80;99.90;;;;;;5014408;28;20115;-75
2023/12/11 05:11:51;;;;;;;33.85;2.95;;;9.90;99.90;;;;;;5013651;28;20045;-75
2023/12/11 05:14:16;;;;;;;22.55;2.13;;;9.90;99.90;;;;;;5013388;28;20037;-75
2023/12/11 05:16:42;;;;;;;27.10;1.83;;;9.90;99.90;;;;;;5013088;28;20460;-75
2023/12/11 05:19:08;;;;;;;25.75;2.75;;;9.90;99.90;;;;;;5012930;28;20018;-75
2023/12/11 05:21:34;;;;;;;25.65;3.08;;;9.90;99.90;;;;;;5013967;28;20052;-75
2023/12/11 05:23:59;;;;;;;28.08;3.47;;;9.90;99.90;;;;;;5014715;28;20037;-75
2023/12/11 05:26:25;;;;;;;26.10;1.23;;;9.90;99.90;;;;;;5014502;28;20049;-75
2023/12/11 05:28:50;;;;;;;26.75;2.78;;;9.90;99.90;;;;;;5014116;28;20032;-75
2023/12/11 05:31:16;;;;;;;32.63;3.35;;;9.90;99.90;;;;;;5014225;28;20572;-75
2023/12/11 05:33:42;;;;;;;17.80;2.95;;;9.90;99.90;;;;;;5015176;28;20043;-75
2023/12/11 05:36:08;;;;;;;21.27;2.88;;;10.00;99.90;;;;;;5014395;28;20466;-75
2023/12/11 05:38:37;;;;;;;22.02;1.88;;;10.00;99.90;;;;;;5014679;28;20030;-75
2023/12/11 05:41:03;;;;;;;27.70;2.80;;;9.90;99.90;;;;;;5012782;28;20493;-75
2023/12/11 05:43:28;;;;;;;23.42;1.83;;;10.00;99.90;;;;;;5012978;28;20029;-75
2023/12/11 05:45:54;;;;;;;17.92;1.27;;;9.90;99.90;;;;;;5012893;28;20485;-75
2023/12/11 05:48:19;;;;;;;15.23;1.15;;;9.90;99.90;;;;;;5012917;28;20030;-75
2023/12/11 05:50:45;;;;;;;30.13;3.45;;;9.90;99.90;;;;;;5014259;28;20458;-75
2023/12/11 05:53:10;;;;;;;21.88;2.72;;;9.90;99.90;;;;;;5012464;28;20038;-75
2023/12/11 05:55:36;;;;;;;15.02;1.65;;;9.90;99.90;;;;;;5014201;28;20030;-75
2023/12/11 05:58:02;;;;;;;17.33;1.35;;;9.90;99.90;;;;;;5014010;28;20080;-75
2023/12/11 06:00:28;;;;;;;20.15;1.67;;;9.90;99.90;;;;;;5012847;28;20026;-75
2023/12/11 06:02:53;;;;;;;27.67;2.35;;;9.90;99.90;;;;;;5014802;28;20478;-73
2023/12/11 06:05:19;;;;;;;23.08;1.60;;;9.80;99.90;;;;;;5014232;28;20038;-75
2023/12/11 06:07:44;;;;;;;19.13;1.77;;;9.80;99.90;;;;;;5014003;28;20026;-75
2023/12/11 06:10:10;;;;;;;21.70;1.02;;;9.80;99.90;;;;;;5014093;28;20093;-75
2023/12/11 06:12:40;;;;;;;20.20;1.13;;;9.80;99.90;;;;;;5013387;28;20381;-75
2023/12/11 06:15:07;;;;;;;12.32;1.50;;;9.70;99.90;;;;;;5014366;28;20425;-74
2023/12/11 06:17:32;;;;;;;20.05;1.63;;;9.60;99.90;;;;;;5014813;28;20014;-73
2023/12/11 06:19:59;;;;;;;16.75;1.85;;;9.50;99.90;;;;;;5014440;28;20505;-73
2023/12/11 06:22:24;;;;;;;18.48;1.60;;;9.70;99.90;;;;;;5018075;28;20029;-73
2023/12/11 06:24:50;;;;;;;15.20;1.45;;;9.50;99.90;;;;;;5017608;28;20034;-73
2023/12/11 06:27:15;;;;;;;8.73;1.10;;;9.50;99.90;;;;;;5018800;28;20030;-73
2023/12/11 06:29:41;;;;;;;16.08;1.73;;;9.40;99.90;;;;;;5017719;28;20029;-73
2023/12/11 06:32:08;;;;;;;16.15;0.50;;;9.40;99.90;;;;;;5016807;28;20076;-73
2023/12/11 06:34:34;;;;;;;33.78;1.60;;;9.40;99.90;;;;;;5018150;28;20042;-74
2023/12/11 06:36:59;;;;;;;13.30;0.47;;;9.70;99.90;;;;;;5017441;28;20069;-74
2023/12/11 06:39:26;;;;;;;13.02;0.80;;;9.40;99.90;;;;;;5017630;28;20022;-74
2023/12/11 06:41:52;;;;;;;20.00;1.08;;;9.40;99.90;;;;;;5017546;28;20040;-73
2023/12/11 06:44:18;;;;;;;12.38;0.40;;;9.50;99.90;;;;;;5017808;28;20105;-73
2023/12/11 06:46:43;;;;;;;14.95;0.75;;;9.50;99.90;;;;;;5018139;28;20034;-73
2023/12/11 06:49:09;;;;;;;12.10;1.67;;;9.50;99.90;;;;;;5017612;28;20109;-73
2023/12/11 06:51:37;;;;;;;13.85;1.73;;;9.50;99.90;;;;;;5017916;28;20037;-73
2023/12/11 06:54:02;;;;;;;9.75;0.80;;;9.40;99.90;;;;;;5018062;28;20049;-73
2023/12/11 06:56:30;;;;;;;19.52;1.27;;;9.40;99.90;;;;;;5018213;28;20026;-73
2023/12/11 06:58:56;;;;;;;12.52;1.45;;;9.40;99.90;;;;;;5017885;28;20072;-73
2023/12/11 07:01:27;;;;;;;10.07;0.65;;;9.40;99.90;;;;;;5016006;28;20477;-73
2023/12/11 07:03:53;;;;;;;8.77;0.38;;;9.40;99.90;;;;;;5017493;28;20030;-73
2023/12/11 07:06:19;;;;;;;10.88;1.30;;;9.40;99.90;;;;;;5016837;28;20385;-73
2023/12/11 07:08:44;;;;;;;14.82;1.08;;;9.40;99.90;;;;;;5017127;28;20026;-73
2023/12/11 07:11:10;;;;;;;12.05;1.02;;;9.40;99.90;;;;;;5015153;28;20061;-73
2023/12/11 07:13:35;;;;;;;12.93;0.60;;;9.40;99.90;;;;;;5017375;28;20042;-74
2023/12/11 07:16:01;;;;;;;15.48;0.95;;;9.40;99.90;;;;;;5017377;28;20028;-74
2023/12/11 07:18:26;;;;;;;9.63;0.22;;;9.50;99.90;;;;;;5016627;28;20545;-73
2023/12/11 07:20:52;;;;;;;18.65;1.25;;;9.50;99.90;;;;;;5017137;28;20033;-73
2023/12/11 07:23:18;;;;;;;11.73;0.57;;;9.60;99.90;;;;;;5016877;28;20033;-74
2023/12/11 07:25:43;;;;;;;10.57;0.95;;;9.60;99.90;;;;;;5016545;28;20029;-73
2023/12/11 07:28:10;;;;;;;14.40;1.35;;;9.50;99.90;;;;;;5016534;28;20065;-74
2023/12/11 07:30:35;;;;;;;11.63;1.05;;;9.60;99.90;;;;;;5016372;28;20029;-73
2023/12/11 07:33:01;;;;;;;14.63;0.35;;;9.50;99.90;;;;;;5013828;28;20022;-74
2023/12/11 07:35:26;;;;;;;5.82;0.47;;;9.50;99.90;;;;;;5016310;28;20030;-74
2023/12/11 07:37:52;;;;;;;7.43;0.22;;;9.50;99.90;;;;;;5016520;28;20029;-74
2023/12/11 07:40:17;;;;;;;9.75;0.55;;;9.60;99.90;;;;;;5016679;28;20029;-74
2023/12/11 07:42:43;;;;;;;10.57;0.80;;;9.60;99.90;;;;;;5016392;28;20034;-74
2023/12/11 07:45:10;;;;;;;8.73;0.32;;;9.60;99.90;;;;;;5016446;28;20026;-74
2023/12/11 07:47:35;;;;;;;5.97;0.47;;;9.50;99.90;;;;;;5016491;28;20061;-74
2023/12/11 07:50:01;;;;;;;5.53;0.20;;;9.50;99.90;;;;;;5016915;28;20029;-74
2023/12/11 07:52:31;;;;;;;8.27;0.10;;;9.50;99.90;;;;;;5016049;28;20037;-74
2023/12/11 07:54:58;;;;;;;9.15;0.55;;;9.50;99.90;;;;;;5016270;28;20477;-74
2023/12/11 07:57:25;;;;;;;12.25;0.82;;;9.50;99.90;;;;;;5016475;28;20459;-74
2023/12/11 07:59:51;;;;;;;8.25;0.40;;;9.50;99.90;;;;;;5016813;28;20030;-74
2023/12/11 08:02:16;;;;;;;9.00;0.40;;;9.50;99.90;;;;;;5016267;28;20022;-74
2023/12/11 08:04:42;;;;;;;6.20;0.63;;;9.50;99.90;;;;;;5015918;28;20045;-74
2023/12/11 08:07:11;;;;;;;10.63;1.05;;;9.50;99.90;;;;;;5017136;28;20457;-73
2023/12/11 08:09:37;;;;;;;10.63;0.40;;;9.50;99.90;;;;;;5016006;28;20025;-74
2023/12/11 08:12:03;;;;;;;8.88;0.68;;;9.50;99.90;;;;;;5016752;28;20474;-74
2023/12/11 08:14:28;;;;;;;12.95;0.20;;;9.50;99.90;;;;;;5015963;28;20022;-74
2023/12/11 08:16:54;;;;;;;17.50;1.75;;;9.50;99.90;;;;;;5016090;28;20022;-74
2023/12/11 08:19:19;;;;;;;7.47;0.90;;;9.50;99.90;;;;;;5015926;28;20022;-74
2023/12/11 08:21:45;;;;;;;14.43;1.05;;;9.50;99.90;;;;;;5015987;28;20092;-74
2023/12/11 08:24:11;;;;;;;22.42;1.45;;;9.60;99.90;;;;;;5016466;28;20436;-73
2023/12/11 08:26:36;;;;;;;7.03;0.43;;;9.60;99.90;;;;;;5016181;28;20025;-73
2023/12/11 08:29:02;;;;;;;6.10;0.22;;;9.60;99.90;;;;;;5016040;28;20380;-73
2023/12/11 08:31:27;;;;;;;5.45;0.25;;;9.60;99.90;;;;;;5015883;28;20493;-74
2023/12/11 08:33:53;;;;;;;10.23;0.65;;;9.70;99.90;;;;;;5014507;28;20026;-73
2023/12/11 08:36:19;;;;;;;5.18;0.28;;;9.70;99.90;;;;;;5015106;28;20025;-73
2023/12/11 08:38:44;;;;;;;5.43;0.20;;;9.70;99.90;;;;;;5016008;28;20040;-73
2023/12/11 08:41:10;;;;;;;5.90;1.17;;;9.70;99.90;;;;;;5015335;28;20030;-73
2023/12/11 08:43:36;;;;;;;8.93;0.73;;;9.70;99.90;;;;;;5016006;28;20022;-74
2023/12/11 08:46:02;;;;;;;8.13;0.43;;;9.70;99.90;;;;;;5015655;28;20084;-74
2023/12/11 08:48:28;;;;;;;9.90;0.47;;;9.70;99.90;;;;;;5015042;28;20417;-74
2023/12/11 08:50:53;;;;;;;10.65;1.58;;;9.70;99.90;;;;;;5015150;28;20033;-74
2023/12/11 08:53:23;;;;;;;4.97;0.00;;;9.70;99.90;;;;;;5015655;28;20554;-74
2023/12/11 08:55:49;;;;;;;9.07;0.43;;;9.70;99.90;;;;;;5015603;28;20029;-74
2023/12/11 08:58:15;;;;;;;9.60;0.50;;;9.80;99.90;;;;;;5015380;28;20374;-74
2023/12/11 09:00:42;;;;;;;7.70;0.82;;;9.70;99.90;;;;;;5015925;28;20056;-74
2023/12/11 09:03:07;;;;;;;8.35;0.65;;;9.80;99.90;;;;;;5015205;28;20066;-74
2023/12/11 09:05:33;;;;;;;9.93;0.68;;;9.80;99.90;;;;;;5014921;28;20053;-74
2023/12/11 09:07:58;;;;;;;13.65;1.10;;;9.80;99.90;;;;;;5015185;28;20030;-74
2023/12/11 09:10:24;;;;;;;9.52;0.75;;;9.80;99.90;;;;;;5015000;28;20406;-73
2023/12/11 09:12:50;;;;;;;10.05;1.05;;;9.80;99.90;;;;;;5016808;28;20034;-73
2023/12/11 09:15:15;;;;;;;9.50;0.35;;;9.80;99.90;;;;;;5015014;28;20033;-73
2023/12/11 09:17:41;;;;;;;7.05;1.00;;;9.80;99.90;;;;;;5015495;28;20030;-73
2023/12/11 09:20:09;;;;;;;3.05;0.22;;;9.90;99.90;;;;;;5015589;28;20028;-73
2023/12/11 09:22:36;;;;;;;14.10;0.73;;;9.90;99.90;;;;;;5015297;28;20021;-73
2023/12/11 09:25:02;;;;;;;10.88;0.30;;;9.90;99.90;;;;;;5015142;28;20469;-73
2023/12/11 09:27:27;;;;;;;9.60;1.20;;;9.90;99.90;;;;;;5014633;28;20037;-73
2023/12/11 09:29:53;;;;;;;11.73;0.70;;;9.90;99.90;;;;;;5014301;28;20030;-73
2023/12/11 09:32:19;;;;;;;12.50;0.60;;;9.90;99.90;;;;;;5015009;28;20029;-73
2023/12/11 09:34:45;;;;;;;13.18;1.05;;;9.90;99.90;;;;;;5015028;28;20069;-73
2023/12/11 09:37:10;;;;;;;10.95;0.65;;;9.80;99.90;;;;;;5013597;28;20045;-73
2023/12/11 09:39:36;;;;;;;6.90;1.25;;;9.80;99.90;;;;;;5014045;28;20022;-73
2023/12/11 09:42:02;;;;;;;13.55;1.15;;;9.80;99.90;;;;;;5014314;28;20025;-73
2023/12/11 09:44:28;;;;;;;15.40;1.27;;;9.80;99.90;;;;;;5014424;28;20081;-73
2023/12/11 09:47:05;;;;;;;16.70;1.13;;;9.80;99.90;;;;;;5014301;28;20505;-74
2023/12/11 09:49:30;;;;;;;8.57;0.55;;;9.80;99.90;;;;;;5014397;28;20066;-73
2023/12/11 09:51:56;;;;;;;20.10;0.90;;;9.80;99.90;;;;;;5014491;28;20072;-73
2023/12/11 09:54:21;;;;;;;18.80;1.27;;;9.80;99.90;;;;;;5014576;28;20098;-74
2023/12/11 09:56:48;;;;;;;15.88;1.15;;;9.80;99.90;;;;;;5016555;28;20030;-74
2023/12/11 09:59:14;;;;;;;10.10;0.93;;;9.70;99.90;;;;;;5018078;28;20022;-74
2023/12/11 10:01:40;;;;;;;13.85;1.48;;;9.80;99.90;;;;;;5016498;28;20037;-74
2023/12/11 10:04:06;;;;;;;14.55;1.63;;;9.80;99.90;;;;;;5018247;28;20032;-74
2023/12/11 10:06:32;;;;;;;9.95;0.88;;;9.80;99.90;;;;;;5017922;28;20053;-74
2023/12/11 10:08:58;;;;;;;16.00;1.27;;;9.80;99.90;;;;;;5017018;28;20022;-74
2023/12/11 10:11:25;;;;;;;16.70;2.03;;;9.70;99.90;;;;;;5017875;28;20541;-74
2023/12/11 10:13:50;;;;;;;13.25;1.38;;;9.70;99.90;;;;;;5017879;28;20096;-74
2023/12/11 10:16:32;;;;;;;8.68;0.55;;;9.30;99.90;;;;;;5018212;28;20060;-73
2023/12/11 10:19:02;;;;;;;10.30;0.98;;;9.80;99.90;;;;;;5016730;28;20014;-74
2023/12/11 10:21:39;;;;;;;20.88;1.02;;;9.70;99.90;;;;;;5017848;28;20084;-74
2023/12/11 10:24:06;;;;;;;13.93;1.30;;;9.90;99.90;;;;;;5017951;28;20022;-74
2023/12/11 10:26:35;;;;;;;10.43;1.10;;;9.90;99.90;;;;;;5018133;28;20037;-74
2023/12/11 10:29:21;;;;;;;19.42;1.25;;;9.90;99.90;;;;;;5018289;28;20021;-73
2023/12/11 10:31:47;;;;;;;12.93;1.45;;;9.90;99.90;;;;;;5017821;28;20021;-73
2023/12/11 10:34:12;;;;;;;11.10;0.90;;;9.80;99.90;;;;;;5017788;28;20053;-73
2023/12/11 10:36:49;;;;;;;15.90;1.75;;;9.90;99.90;;;;;;5018134;28;20049;-74
2023/12/11 10:39:15;;;;;;;16.45;1.30;;;9.80;99.90;;;;;;5017530;28;20076;-74
2023/12/11 10:41:44;;;;;;;6.00;0.65;;;9.80;99.90;;;;;;5017262;28;20429;-74
2023/12/11 10:44:22;;;;;;;7.38;0.47;;;9.70;99.90;;;;;;5017324;28;20488;-74
2023/12/11 10:46:50;;;;;;;14.93;0.50;;;9.50;99.90;;;;;;5017901;28;20021;-73
2023/12/11 10:49:17;;;;;;;6.47;0.38;;;9.40;99.90;;;;;;5016143;28;20084;-74
2023/12/11 10:51:45;;;;;;;8.15;1.17;;;9.40;99.90;;;;;;5017767;28;20209;-74
2023/12/11 10:54:10;;;;;;;8.70;0.38;;;9.80;99.90;;;;;;5016467;28;20025;-74
2023/12/11 10:56:36;;;;;;;14.85;0.85;;;9.50;99.90;;;;;;5017270;28;20493;-74
2023/12/11 10:59:02;;;;;;;12.60;0.32;;;9.50;99.90;;;;;;5017911;28;20060;-74
2023/12/11 11:01:28;;;;;;;10.70;1.02;;;9.50;99.90;;;;;;5018015;28;20033;-74
2023/12/11 11:03:54;;;;;;;6.25;0.60;;;9.60;99.90;;;;;;5016445;28;20499;-74
2023/12/11 11:06:22;;;;;;;5.40;0.55;;;9.60;99.90;;;;;;5017246;28;20473;-74
2023/12/11 11:09:12;;;;;;;9.30;1.30;;;9.60;99.90;;;;;;5017023;28;20034;-74
2023/12/11 11:11:47;;;;;;;4.40;0.00;;;9.80;99.90;;;;;;5017402;28;20025;-74
2023/12/11 11:14:38;;;;;;;9.13;0.20;;;10.00;99.90;;;;;;5015982;28;20024;-74
2023/12/11 11:17:05;;;;;;;9.77;0.63;;;10.00;99.90;;;;;;5017409;28;20034;-74
2023/12/11 11:19:31;;;;;;;8.27;0.45;;;10.00;99.90;;;;;;5017161;28;20026;-74
2023/12/11 11:22:00;;;;;;;5.07;0.10;;;10.00;99.90;;;;;;5016162;28;20018;-74
2023/12/11 11:24:29;;;;;;;9.02;0.63;;;10.00;99.90;;;;;;5016725;28;20030;-74
2023/12/11 11:26:55;;;;;;;4.82;0.50;;;10.00;99.90;;;;;;5017067;28;20093;-74
2023/12/11 11:29:41;;;;;;;4.53;0.43;;;10.00;99.90;;;;;;5017107;28;20054;-74
2023/12/11 11:32:08;;;;;;;4.40;0.10;;;10.00;99.90;;;;;;5016188;28;20069;-74
2023/12/11 11:34:39;;;;;;;5.60;0.35;;;10.10;99.90;;;;;;5016885;28;20022;-74
2023/12/11 11:37:17;;;;;;;6.85;0.50;;;10.10;99.90;;;;;;5016917;28;20030;-74
2023/12/11 11:39:59;;;;;;;10.13;1.08;;;10.00;99.90;;;;;;5016647;28;20089;-74
2023/12/11 11:42:32;;;;;;;5.55;0.63;;;10.00;99.90;;;;;;5016812;28;20482;-74
2023/12/11 11:45:02;;;;;;;4.32;0.10;;;9.90;99.90;;;;;;5017680;28;20030;-74
2023/12/11 11:47:29;;;;;;;17.23;2.00;;;9.90;99.90;;;;;;5016961;28;20018;-74
2023/12/11 11:50:10;;;;;;;10.00;0.40;;;9.90;99.90;;;;;;5016407;28;20026;-74
2023/12/11 11:52:38;;;;;;;6.80;0.73;;;9.90;99.90;;;;;;5015646;28;20026;-74
2023/12/11 11:55:27;;;;;;;8.97;0.67;;;9.80;99.90;;;;;;5016839;28;20169;-74
2023/12/11 11:57:53;;;;;;;13.07;1.38;;;9.70;99.90;;;;;;5015838;28;20026;-74
2023/12/11 12:00:29;;;;;;;12.43;1.15;;;9.70;99.90;;;;;;5016846;28;20041;-74
2023/12/11 12:03:04;;;;;;;4.75;0.95;;;9.70;99.90;;;;;;5017261;28;20026;-74
2023/12/11 12:05:29;;;;;;;8.48;0.45;;;9.70;99.90;;;;;;5015803;28;20032;-74
2023/12/11 12:07:56;;;;;;;12.48;0.65;;;9.80;99.90;;;;;;5015368;28;20021;-74
2023/12/11 12:10:22;;;;;;;3.10;0.05;;;9.90;99.90;;;;;;5014711;28;20485;-74
2023/12/11 12:12:55;;;;;;;14.48;2.20;;;9.90;99.90;;;;;;5016728;28;20022;-74
2023/12/11 12:15:20;;;;;;;9.80;1.10;;;10.00;99.90;;;;;;5015285;28;20104;-74
2023/12/11 12:17:46;;;;;;;3.60;0.20;;;10.10;99.90;;;;;;5015068;28;20022;-74
2023/12/11 12:20:13;;;;;;;10.23;0.80;;;10.10;99.90;;;;;;5015920;28;20028;-74
2023/12/11 12:22:53;;;;;;;8.77;1.10;;;10.00;99.90;;;;;;5016419;28;20026;-74
2023/12/11 12:25:18;;;;;;;12.23;0.10;;;10.10;99.90;;;;;;5016124;28;20026;-74
2023/12/11 12:27:45;;;;;;;5.57;0.47;;;10.10;99.90;;;;;;5016781;28;20105;-74
2023/12/11 12:30:11;;;;;;;9.48;0.10;;;10.00;99.90;;;;;;5014653;28;20497;-74
2023/12/11 12:32:37;;;;;;;6.50;0.47;;;10.10;99.90;;;;;;5016751;28;20028;-74
2023/12/11 12:35:04;;;;;;;6.55;1.23;;;10.10;99.90;;;;;;5014928;28;20022;-74
2023/12/11 12:37:30;;;;;;;5.25;0.43;;;10.10;99.90;;;;;;5016212;28;20017;-74
2023/12/11 12:39:56;;;;;;;8.38;0.10;;;10.10;99.90;;;;;;5015801;28;20371;-74
2023/12/11 12:42:29;;;;;;;6.70;0.15;;;10.00;99.90;;;;;;5016191;28;20413;-74
2023/12/11 12:44:54;;;;;;;11.40;0.75;;;10.00;99.90;;;;;;5016616;28;20028;-74